Terminal Aerodrome Forecast
Issued by NWS

Home | Current Version | Previous Version | Text Only | Print | Product List | Glossary On
Versions: 1 2 3 4 5 6 7 8 9 10 11 12 13 14 15 16 17
248
FTUS43 KTOP 141720
TAFFOE
TAF
KFOE 141720Z 1418/1518 28010KT P6SM SKC
     FM150000 VRB03KT P6SM BKN100
     FM151400 29009KT P6SM SCT250=

USA.gov is the U.S. government's official web portal to all federal, state and local government web resources and services.